sensor_id;sensor_type;location;lat;lon;timestamp;pressure;altitude;pressure_sealevel;temperature;humidity
45071;BME280;30836;48.906;9.140;2022-07-23T00:00:22;985.52;;;29.48;37.92
45071;BME280;30836;48.906;9.140;2022-07-23T00:01:22;985.48;;;29.45;37.87
45071;BME280;30836;48.906;9.140;2022-07-23T00:02:23;985.52;;;29.39;38.06
45071;BME280;30836;48.906;9.140;2022-07-23T00:03:24;985.52;;;29.32;38.05
45071;BME280;30836;48.906;9.140;2022-07-23T00:04:25;985.54;;;29.26;38.16
45071;BME280;30836;48.906;9.140;2022-07-23T00:05:25;985.54;;;29.22;38.06
45071;BME280;30836;48.906;9.140;2022-07-23T00:06:26;985.54;;;29.21;38.04
45071;BME280;30836;48.906;9.140;2022-07-23T00:07:27;985.50;;;29.23;37.95
45071;BME280;30836;48.906;9.140;2022-07-23T00:08:27;985.50;;;29.24;37.99
45071;BME280;30836;48.906;9.140;2022-07-23T00:09:28;985.52;;;29.20;38.01
45071;BME280;30836;48.906;9.140;2022-07-23T00:10:28;985.44;;;29.11;38.22
45071;BME280;30836;48.906;9.140;2022-07-23T00:11:28;985.38;;;28.98;38.26
45071;BME280;30836;48.906;9.140;2022-07-23T00:12:29;985.27;;;28.86;38.26
45071;BME280;30836;48.906;9.140;2022-07-23T00:13:29;985.25;;;28.78;38.39
45071;BME280;30836;48.906;9.140;2022-07-23T00:14:30;985.25;;;28.76;38.28
45071;BME280;30836;48.906;9.140;2022-07-23T00:15:30;985.29;;;28.78;38.23
45071;BME280;30836;48.906;9.140;2022-07-23T00:16:31;985.34;;;28.78;38.12
45071;BME280;30836;48.906;9.140;2022-07-23T00:17:31;985.44;;;28.79;38.17
45071;BME280;30836;48.906;9.140;2022-07-23T00:18:32;985.48;;;28.77;38.31
45071;BME280;30836;48.906;9.140;2022-07-23T00:19:33;985.40;;;28.76;38.14
45071;BME280;30836;48.906;9.140;2022-07-23T00:20:33;985.36;;;28.80;38.02
45071;BME280;30836;48.906;9.140;2022-07-23T00:21:34;985.34;;;28.88;37.80
45071;BME280;30836;48.906;9.140;2022-07-23T00:22:34;985.31;;;28.95;37.75
45071;BME280;30836;48.906;9.140;2022-07-23T00:23:35;985.29;;;28.98;37.71
45071;BME280;30836;48.906;9.140;2022-07-23T00:24:35;985.27;;;29.00;37.65
45071;BME280;30836;48.906;9.140;2022-07-23T00:25:36;985.31;;;29.01;37.65
45071;BME280;30836;48.906;9.140;2022-07-23T00:26:36;985.29;;;28.99;37.64
45071;BME280;30836;48.906;9.140;2022-07-23T00:27:37;985.27;;;28.92;38.01
45071;BME280;30836;48.906;9.140;2022-07-23T00:28:37;985.27;;;28.84;38.13
45071;BME280;30836;48.906;9.140;2022-07-23T00:29:38;985.27;;;28.78;38.18
45071;BME280;30836;48.906;9.140;2022-07-23T00:30:38;985.23;;;28.76;38.14
45071;BME280;30836;48.906;9.140;2022-07-23T00:31:39;985.23;;;28.80;37.98
45071;BME280;30836;48.906;9.140;2022-07-23T00:33:52;985.19;;;28.92;37.78
45071;BME280;30836;48.906;9.140;2022-07-23T00:34:53;985.17;;;28.95;37.95
45071;BME280;30836;48.906;9.140;2022-07-23T00:35:53;985.17;;;28.92;37.98
45071;BME280;30836;48.906;9.140;2022-07-23T00:36:54;985.19;;;28.91;38.00
45071;BME280;30836;48.906;9.140;2022-07-23T00:37:55;985.15;;;28.89;38.16
45071;BME280;30836;48.906;9.140;2022-07-23T00:38:56;985.15;;;28.87;38.04
45071;BME280;30836;48.906;9.140;2022-07-23T00:39:56;985.11;;;28.87;38.22
45071;BME280;30836;48.906;9.140;2022-07-23T00:40:57;985.13;;;28.82;38.45
45071;BME280;30836;48.906;9.140;2022-07-23T00:41:57;985.07;;;28.73;38.62
45071;BME280;30836;48.906;9.140;2022-07-23T00:42:58;985.05;;;28.63;38.74
45071;BME280;30836;48.906;9.140;2022-07-23T00:45:10;985.11;;;28.61;38.56
45071;BME280;30836;48.906;9.140;2022-07-23T00:46:10;985.11;;;28.60;38.78
45071;BME280;30836;48.906;9.140;2022-07-23T00:47:11;985.13;;;28.57;38.72
45071;BME280;30836;48.906;9.140;2022-07-23T00:48:11;985.15;;;28.59;38.72
45071;BME280;30836;48.906;9.140;2022-07-23T00:49:12;985.15;;;28.57;38.97
45071;BME280;30836;48.906;9.140;2022-07-23T00:50:12;985.17;;;28.51;39.04
45071;BME280;30836;48.906;9.140;2022-07-23T00:51:14;985.17;;;28.45;39.10
45071;BME280;30836;48.906;9.140;2022-07-23T00:52:16;985.17;;;28.41;39.18
45071;BME280;30836;48.906;9.140;2022-07-23T00:53:16;985.19;;;28.39;39.14
45071;BME280;30836;48.906;9.140;2022-07-23T00:54:17;985.17;;;28.37;39.21
45071;BME280;30836;48.906;9.140;2022-07-23T00:55:19;985.11;;;28.33;39.31
45071;BME280;30836;48.906;9.140;2022-07-23T00:56:19;985.05;;;28.31;39.32
45071;BME280;30836;48.906;9.140;2022-07-23T00:57:20;985.05;;;28.27;39.50
45071;BME280;30836;48.906;9.140;2022-07-23T00:58:21;985.05;;;28.24;39.44
45071;BME280;30836;48.906;9.140;2022-07-23T00:59:21;985.05;;;28.23;39.39
45071;BME280;30836;48.906;9.140;2022-07-23T01:00:22;985.03;;;28.24;39.49
45071;BME280;30836;48.906;9.140;2022-07-23T01:01:22;985.03;;;28.26;39.29
45071;BME280;30836;48.906;9.140;2022-07-23T01:02:23;985.05;;;28.29;39.39
45071;BME280;30836;48.906;9.140;2022-07-23T01:03:27;985.13;;;28.28;39.42
45071;BME280;30836;48.906;9.140;2022-07-23T01:04:27;985.17;;;28.27;39.51
45071;BME280;30836;48.906;9.140;2022-07-23T01:05:28;985.21;;;28.25;39.59
45071;BME280;30836;48.906;9.140;2022-07-23T01:06:29;985.19;;;28.25;39.49
45071;BME280;30836;48.906;9.140;2022-07-23T01:07:34;985.17;;;28.28;39.47
45071;BME280;30836;48.906;9.140;2022-07-23T01:08:34;985.15;;;28.30;39.45
45071;BME280;30836;48.906;9.140;2022-07-23T01:09:35;985.17;;;28.31;39.46
45071;BME280;30836;48.906;9.140;2022-07-23T01:10:36;985.11;;;28.34;39.36
45071;BME280;30836;48.906;9.140;2022-07-23T01:11:37;985.11;;;28.37;39.30
45071;BME280;30836;48.906;9.140;2022-07-23T01:12:38;985.11;;;28.40;39.18
45071;BME280;30836;48.906;9.140;2022-07-23T01:14:44;985.21;;;28.46;39.13
45071;BME280;30836;48.906;9.140;2022-07-23T01:15:45;985.23;;;28.46;39.34
45071;BME280;30836;48.906;9.140;2022-07-23T01:16:46;985.21;;;28.40;39.66
45071;BME280;30836;48.906;9.140;2022-07-23T01:17:48;985.23;;;28.34;39.66
45071;BME280;30836;48.906;9.140;2022-07-23T01:18:49;985.23;;;28.33;39.66
45071;BME280;30836;48.906;9.140;2022-07-23T01:19:49;985.19;;;28.36;39.53
45071;BME280;30836;48.906;9.140;2022-07-23T01:20:50;985.19;;;28.40;39.56
45071;BME280;30836;48.906;9.140;2022-07-23T01:21:51;985.15;;;28.42;39.50
45071;BME280;30836;48.906;9.140;2022-07-23T01:22:53;985.15;;;28.43;39.60
45071;BME280;30836;48.906;9.140;2022-07-23T01:23:53;985.17;;;28.40;39.63
45071;BME280;30836;48.906;9.140;2022-07-23T01:24:54;985.13;;;28.35;39.88
45071;BME280;30836;48.906;9.140;2022-07-23T01:25:54;985.07;;;28.29;39.86
45071;BME280;30836;48.906;9.140;2022-07-23T01:26:55;985.03;;;28.29;39.88
45071;BME280;30836;48.906;9.140;2022-07-23T01:27:55;985.03;;;28.33;39.72
45071;BME280;30836;48.906;9.140;2022-07-23T01:28:06;985.03;;;28.41;39.72
45071;BME280;30836;48.906;9.140;2022-07-23T01:29:06;984.99;;;28.44;39.59
45071;BME280;30836;48.906;9.140;2022-07-23T01:30:07;984.99;;;28.48;39.53
45071;BME280;30836;48.906;9.140;2022-07-23T01:31:08;985.01;;;28.52;39.45
45071;BME280;30836;48.906;9.140;2022-07-23T01:32:08;985.03;;;28.59;39.32
45071;BME280;30836;48.906;9.140;2022-07-23T01:33:09;985.05;;;28.66;39.18
45071;BME280;30836;48.906;9.140;2022-07-23T01:34:09;985.05;;;28.76;38.90
45071;BME280;30836;48.906;9.140;2022-07-23T01:35:10;985.05;;;28.88;38.79
45071;BME280;30836;48.906;9.140;2022-07-23T01:36:11;985.01;;;28.99;38.49
45071;BME280;30836;48.906;9.140;2022-07-23T01:37:11;984.99;;;29.12;38.24
45071;BME280;30836;48.906;9.140;2022-07-23T01:38:12;984.97;;;29.24;38.11
45071;BME280;30836;48.906;9.140;2022-07-23T01:39:12;984.93;;;29.33;37.92
45071;BME280;30836;48.906;9.140;2022-07-23T01:40:13;984.93;;;29.41;37.91
45071;BME280;30836;48.906;9.140;2022-07-23T01:41:13;984.89;;;29.45;37.90
45071;BME280;30836;48.906;9.140;2022-07-23T01:42:13;984.87;;;29.47;37.80
45071;BME280;30836;48.906;9.140;2022-07-23T01:43:14;984.85;;;29.52;37.69
45071;BME280;30836;48.906;9.140;2022-07-23T01:44:14;984.91;;;29.58;37.58
45071;BME280;30836;48.906;9.140;2022-07-23T01:45:15;984.91;;;29.62;37.57
45071;BME280;30836;48.906;9.140;2022-07-23T01:46:16;984.93;;;29.63;37.62
45071;BME280;30836;48.906;9.140;2022-07-23T01:47:16;984.95;;;29.61;37.72
45071;BME280;30836;48.906;9.140;2022-07-23T01:48:17;984.95;;;29.54;37.90
45071;BME280;30836;48.906;9.140;2022-07-23T01:49:17;984.95;;;29.41;38.28
45071;BME280;30836;48.906;9.140;2022-07-23T01:50:18;984.95;;;29.28;38.40
45071;BME280;30836;48.906;9.140;2022-07-23T01:51:18;984.95;;;29.18;38.62
45071;BME280;30836;48.906;9.140;2022-07-23T01:52:19;984.95;;;29.07;38.93
45071;BME280;30836;48.906;9.140;2022-07-23T01:53:19;984.97;;;28.95;39.14
45071;BME280;30836;48.906;9.140;2022-07-23T01:54:20;984.95;;;28.85;39.27
45071;BME280;30836;48.906;9.140;2022-07-23T01:55:20;984.97;;;28.77;39.36
45071;BME280;30836;48.906;9.140;2022-07-23T01:56:21;984.97;;;28.71;39.54
45071;BME280;30836;48.906;9.140;2022-07-23T01:57:21;984.97;;;28.64;39.73
45071;BME280;30836;48.906;9.140;2022-07-23T01:58:21;984.99;;;28.58;39.81
45071;BME280;30836;48.906;9.140;2022-07-23T01:59:22;985.03;;;28.52;39.88
45071;BME280;30836;48.906;9.140;2022-07-23T02:00:23;985.05;;;28.45;40.15
45071;BME280;30836;48.906;9.140;2022-07-23T02:01:24;985.09;;;28.38;40.17
45071;BME280;30836;48.906;9.140;2022-07-23T02:02:24;985.09;;;28.34;40.30
45071;BME280;30836;48.906;9.140;2022-07-23T02:03:24;985.13;;;28.28;40.46
45071;BME280;30836;48.906;9.140;2022-07-23T02:04:26;985.15;;;28.22;40.58
45071;BME280;30836;48.906;9.140;2022-07-23T02:05:26;985.15;;;28.19;40.57
45071;BME280;30836;48.906;9.140;2022-07-23T02:06:28;985.17;;;28.19;40.64
45071;BME280;30836;48.906;9.140;2022-07-23T02:07:28;985.17;;;28.19;40.65
45071;BME280;30836;48.906;9.140;2022-07-23T02:08:29;985.11;;;28.18;40.69
45071;BME280;30836;48.906;9.140;2022-07-23T02:09:29;985.11;;;28.15;40.89
45071;BME280;30836;48.906;9.140;2022-07-23T02:10:30;985.09;;;28.11;40.92
45071;BME280;30836;48.906;9.140;2022-07-23T02:11:30;985.05;;;28.09;40.92
45071;BME280;30836;48.906;9.140;2022-07-23T02:12:31;985.01;;;28.08;40.91
45071;BME280;30836;48.906;9.140;2022-07-23T02:13:31;984.99;;;28.06;40.90
45071;BME280;30836;48.906;9.140;2022-07-23T02:14:32;984.91;;;28.06;40.78
45071;BME280;30836;48.906;9.140;2022-07-23T02:15:32;984.89;;;28.08;40.49
45071;BME280;30836;48.906;9.140;2022-07-23T02:16:33;984.89;;;28.10;40.48
45071;BME280;30836;48.906;9.140;2022-07-23T02:17:34;984.91;;;28.12;40.43
45071;BME280;30836;48.906;9.140;2022-07-23T02:18:34;984.93;;;28.15;40.40
45071;BME280;30836;48.906;9.140;2022-07-23T02:19:35;984.99;;;28.19;40.19
45071;BME280;30836;48.906;9.140;2022-07-23T02:20:35;985.05;;;28.22;40.18
45071;BME280;30836;48.906;9.140;2022-07-23T02:21:36;985.11;;;28.25;40.14
45071;BME280;30836;48.906;9.140;2022-07-23T02:22:36;985.21;;;28.27;40.22
45071;BME280;30836;48.906;9.140;2022-07-23T02:23:37;985.31;;;28.26;40.28
45071;BME280;30836;48.906;9.140;2022-07-23T02:24:38;985.38;;;28.24;40.26
45071;BME280;30836;48.906;9.140;2022-07-23T02:25:39;985.44;;;28.23;40.14
45071;BME280;30836;48.906;9.140;2022-07-23T02:26:39;985.50;;;28.22;39.94
45071;BME280;30836;48.906;9.140;2022-07-23T02:27:40;985.52;;;28.20;40.01
45071;BME280;30836;48.906;9.140;2022-07-23T02:28:40;985.50;;;28.17;40.09
45071;BME280;30836;48.906;9.140;2022-07-23T02:29:41;985.48;;;28.14;40.04
45071;BME280;30836;48.906;9.140;2022-07-23T02:30:41;985.48;;;28.14;40.01
45071;BME280;30836;48.906;9.140;2022-07-23T02:31:42;985.46;;;28.15;40.07
45071;BME280;30836;48.906;9.140;2022-07-23T02:32:43;985.50;;;28.16;40.02
45071;BME280;30836;48.906;9.140;2022-07-23T02:33:43;985.52;;;28.16;39.90
45071;BME280;30836;48.906;9.140;2022-07-23T02:34:44;985.58;;;28.18;39.85
45071;BME280;30836;48.906;9.140;2022-07-23T02:35:44;985.60;;;28.19;39.79
45071;BME280;30836;48.906;9.140;2022-07-23T02:36:45;985.62;;;28.16;39.94
45071;BME280;30836;48.906;9.140;2022-07-23T02:37:45;985.64;;;28.15;39.88
45071;BME280;30836;48.906;9.140;2022-07-23T02:38:45;985.66;;;28.17;39.79
45071;BME280;30836;48.906;9.140;2022-07-23T02:39:46;985.66;;;28.19;39.83
45071;BME280;30836;48.906;9.140;2022-07-23T02:40:46;985.66;;;28.18;39.97
45071;BME280;30836;48.906;9.140;2022-07-23T02:41:47;985.70;;;28.16;39.94
45071;BME280;30836;48.906;9.140;2022-07-23T02:42:47;985.76;;;28.17;39.92
45071;BME280;30836;48.906;9.140;2022-07-23T02:43:48;985.74;;;28.17;39.91
45071;BME280;30836;48.906;9.140;2022-07-23T02:44:48;985.78;;;28.17;39.92
45071;BME280;30836;48.906;9.140;2022-07-23T02:45:49;985.80;;;28.16;39.97
45071;BME280;30836;48.906;9.140;2022-07-23T02:46:49;985.83;;;28.14;39.99
45071;BME280;30836;48.906;9.140;2022-07-23T02:47:50;985.83;;;28.11;40.24
45071;BME280;30836;48.906;9.140;2022-07-23T02:48:50;985.83;;;28.07;40.19
45071;BME280;30836;48.906;9.140;2022-07-23T02:49:51;985.85;;;28.06;40.23
45071;BME280;30836;48.906;9.140;2022-07-23T02:50:51;985.85;;;28.05;40.37
45071;BME280;30836;48.906;9.140;2022-07-23T02:51:52;985.83;;;28.04;40.51
45071;BME280;30836;48.906;9.140;2022-07-23T02:52:52;985.83;;;28.02;40.54
45071;BME280;30836;48.906;9.140;2022-07-23T02:53:53;985.85;;;28.00;40.63
45071;BME280;30836;48.906;9.140;2022-07-23T02:54:53;985.85;;;27.97;40.75
45071;BME280;30836;48.906;9.140;2022-07-23T02:55:54;985.89;;;27.95;40.81
45071;BME280;30836;48.906;9.140;2022-07-23T02:56:54;985.91;;;27.94;40.65
45071;BME280;30836;48.906;9.140;2022-07-23T02:57:54;985.93;;;27.94;40.63
45071;BME280;30836;48.906;9.140;2022-07-23T02:58:55;985.95;;;27.95;40.57
45071;BME280;30836;48.906;9.140;2022-07-23T02:59:55;985.97;;;27.96;40.55
45071;BME280;30836;48.906;9.140;2022-07-23T03:00:56;986.01;;;27.99;40.53
45071;BME280;30836;48.906;9.140;2022-07-23T03:01:56;986.03;;;28.00;40.65
45071;BME280;30836;48.906;9.140;2022-07-23T03:02:57;986.05;;;27.98;40.67
45071;BME280;30836;48.906;9.140;2022-07-23T03:03:57;986.07;;;27.96;40.68
45071;BME280;30836;48.906;9.140;2022-07-23T03:04:58;986.07;;;27.96;40.72
45071;BME280;30836;48.906;9.140;2022-07-23T03:05:58;986.09;;;27.95;40.75
45071;BME280;30836;48.906;9.140;2022-07-23T03:06:59;986.11;;;27.93;40.78
45071;BME280;30836;48.906;9.140;2022-07-23T03:07:59;986.09;;;27.89;40.93
45071;BME280;30836;48.906;9.140;2022-07-23T03:08:59;986.11;;;27.85;41.00
45071;BME280;30836;48.906;9.140;2022-07-23T03:10:00;986.11;;;27.84;40.98
45071;BME280;30836;48.906;9.140;2022-07-23T03:11:00;986.09;;;27.83;41.02
45071;BME280;30836;48.906;9.140;2022-07-23T03:12:01;986.11;;;27.84;40.99
45071;BME280;30836;48.906;9.140;2022-07-23T03:13:01;986.09;;;27.85;41.00
45071;BME280;30836;48.906;9.140;2022-07-23T03:14:02;986.07;;;27.87;41.04
45071;BME280;30836;48.906;9.140;2022-07-23T03:15:03;986.09;;;27.87;41.19
45071;BME280;30836;48.906;9.140;2022-07-23T03:16:04;986.09;;;27.85;41.28
45071;BME280;30836;48.906;9.140;2022-07-23T03:17:05;986.09;;;27.84;41.31
45071;BME280;30836;48.906;9.140;2022-07-23T03:18:05;986.07;;;27.84;41.29
45071;BME280;30836;48.906;9.140;2022-07-23T03:19:06;986.07;;;27.84;41.41
45071;BME280;30836;48.906;9.140;2022-07-23T03:20:06;986.09;;;27.83;41.37
45071;BME280;30836;48.906;9.140;2022-07-23T03:21:08;986.07;;;27.84;41.38
45071;BME280;30836;48.906;9.140;2022-07-23T03:22:08;986.07;;;27.83;41.45
45071;BME280;30836;48.906;9.140;2022-07-23T03:23:09;986.05;;;27.80;41.65
45071;BME280;30836;48.906;9.140;2022-07-23T03:24:09;986.05;;;27.77;41.65
45071;BME280;30836;48.906;9.140;2022-07-23T03:25:10;985.99;;;27.74;41.76
45071;BME280;30836;48.906;9.140;2022-07-23T03:26:10;985.99;;;27.69;41.85
45071;BME280;30836;48.906;9.140;2022-07-23T03:27:11;985.97;;;27.66;41.94
45071;BME280;30836;48.906;9.140;2022-07-23T03:28:11;985.93;;;27.62;42.08
45071;BME280;30836;48.906;9.140;2022-07-23T03:29:12;985.93;;;27.60;42.10
45071;BME280;30836;48.906;9.140;2022-07-23T03:30:12;985.95;;;27.58;42.17
45071;BME280;30836;48.906;9.140;2022-07-23T03:31:12;985.97;;;27.55;42.21
45071;BME280;30836;48.906;9.140;2022-07-23T03:32:13;985.97;;;27.54;42.13
45071;BME280;30836;48.906;9.140;2022-07-23T03:33:14;985.99;;;27.55;42.12
45071;BME280;30836;48.906;9.140;2022-07-23T03:34:15;985.99;;;27.57;42.10
45071;BME280;30836;48.906;9.140;2022-07-23T03:35:16;985.97;;;27.59;42.06
45071;BME280;30836;48.906;9.140;2022-07-23T03:36:16;986.01;;;27.59;42.06
45071;BME280;30836;48.906;9.140;2022-07-23T03:37:17;986.03;;;27.57;42.17
45071;BME280;30836;48.906;9.140;2022-07-23T03:38:18;986.03;;;27.57;42.11
45071;BME280;30836;48.906;9.140;2022-07-23T03:39:19;986.07;;;27.58;41.98
45071;BME280;30836;48.906;9.140;2022-07-23T03:40:19;986.09;;;27.61;41.93
45071;BME280;30836;48.906;9.140;2022-07-23T03:41:20;986.09;;;27.65;41.81
45071;BME280;30836;48.906;9.140;2022-07-23T03:42:20;986.13;;;27.68;41.84
45071;BME280;30836;48.906;9.140;2022-07-23T03:43:21;986.13;;;27.71;41.84
45071;BME280;30836;48.906;9.140;2022-07-23T03:44:21;986.13;;;27.72;41.92
45071;BME280;30836;48.906;9.140;2022-07-23T03:45:22;986.15;;;27.73;41.93
45071;BME280;30836;48.906;9.140;2022-07-23T03:46:23;986.15;;;27.74;41.89
45071;BME280;30836;48.906;9.140;2022-07-23T03:47:23;986.19;;;27.76;41.83
45071;BME280;30836;48.906;9.140;2022-07-23T03:48:23;986.21;;;27.78;41.74
45071;BME280;30836;48.906;9.140;2022-07-23T03:49:24;986.23;;;27.81;41.71
45071;BME280;30836;48.906;9.140;2022-07-23T03:50:25;986.21;;;27.83;41.87
45071;BME280;30836;48.906;9.140;2022-07-23T03:51:25;986.23;;;27.84;41.89
45071;BME280;30836;48.906;9.140;2022-07-23T03:52:26;986.23;;;27.84;42.00
45071;BME280;30836;48.906;9.140;2022-07-23T03:53:26;986.21;;;27.84;41.95
45071;BME280;30836;48.906;9.140;2022-07-23T03:54:27;986.21;;;27.85;41.91
45071;BME280;30836;48.906;9.140;2022-07-23T03:55:27;986.19;;;27.86;41.89
45071;BME280;30836;48.906;9.140;2022-07-23T03:56:28;986.19;;;27.87;41.94
45071;BME280;30836;48.906;9.140;2022-07-23T03:57:29;986.21;;;27.87;42.05
45071;BME280;30836;48.906;9.140;2022-07-23T03:58:29;986.21;;;27.87;42.19
45071;BME280;30836;48.906;9.140;2022-07-23T03:59:30;986.23;;;27.86;42.11
45071;BME280;30836;48.906;9.140;2022-07-23T04:00:31;986.21;;;27.86;42.00
45071;BME280;30836;48.906;9.140;2022-07-23T04:01:31;986.21;;;27.87;42.02
45071;BME280;30836;48.906;9.140;2022-07-23T04:02:32;986.23;;;27.86;42.12
45071;BME280;30836;48.906;9.140;2022-07-23T04:03:32;986.23;;;27.85;42.04
45071;BME280;30836;48.906;9.140;2022-07-23T04:04:33;986.23;;;27.84;42.14
45071;BME280;30836;48.906;9.140;2022-07-23T04:05:33;986.23;;;27.82;42.16
45071;BME280;30836;48.906;9.140;2022-07-23T04:06:34;986.23;;;27.81;42.21
45071;BME280;30836;48.906;9.140;2022-07-23T04:07:35;986.21;;;27.81;42.13
45071;BME280;30836;48.906;9.140;2022-07-23T04:08:36;986.23;;;27.81;42.15
45071;BME280;30836;48.906;9.140;2022-07-23T04:09:36;986.25;;;27.82;42.13
45071;BME280;30836;48.906;9.140;2022-07-23T04:10:36;986.23;;;27.83;42.02
45071;BME280;30836;48.906;9.140;2022-07-23T04:11:37;986.23;;;27.85;42.04
45071;BME280;30836;48.906;9.140;2022-07-23T04:12:37;986.25;;;27.88;41.97
45071;BME280;30836;48.906;9.140;2022-07-23T04:13:38;986.25;;;27.92;41.91
45071;BME280;30836;48.906;9.140;2022-07-23T04:14:39;986.23;;;27.93;41.99
45071;BME280;30836;48.906;9.140;2022-07-23T04:15:40;986.25;;;27.93;41.99
45071;BME280;30836;48.906;9.140;2022-07-23T04:16:40;986.25;;;27.93;41.95
45071;BME280;30836;48.906;9.140;2022-07-23T04:17:41;986.25;;;27.92;42.05
45071;BME280;30836;48.906;9.140;2022-07-23T04:18:41;986.27;;;27.91;42.08
45071;BME280;30836;48.906;9.140;2022-07-23T04:19:42;986.25;;;27.89;42.06
45071;BME280;30836;48.906;9.140;2022-07-23T04:20:43;986.27;;;27.88;42.13
45071;BME280;30836;48.906;9.140;2022-07-23T04:21:44;986.29;;;27.85;42.27
45071;BME280;30836;48.906;9.140;2022-07-23T04:22:45;986.29;;;27.82;42.27
45071;BME280;30836;48.906;9.140;2022-07-23T04:23:45;986.31;;;27.80;42.35
45071;BME280;30836;48.906;9.140;2022-07-23T04:24:46;986.31;;;27.78;42.38
45071;BME280;30836;48.906;9.140;2022-07-23T04:25:46;986.27;;;27.76;42.39
45071;BME280;30836;48.906;9.140;2022-07-23T04:26:47;986.25;;;27.73;42.52
45071;BME280;30836;48.906;9.140;2022-07-23T04:27:48;986.27;;;27.70;42.50
45071;BME280;30836;48.906;9.140;2022-07-23T04:28:48;986.27;;;27.68;42.44
45071;BME280;30836;48.906;9.140;2022-07-23T04:29:49;986.27;;;27.68;42.53
45071;BME280;30836;48.906;9.140;2022-07-23T04:30:49;986.25;;;27.68;42.57
45071;BME280;30836;48.906;9.140;2022-07-23T04:31:50;986.25;;;27.69;42.47
45071;BME280;30836;48.906;9.140;2022-07-23T04:32:50;986.23;;;27.70;42.42
45071;BME280;30836;48.906;9.140;2022-07-23T04:33:51;986.23;;;27.70;42.49
45071;BME280;30836;48.906;9.140;2022-07-23T04:34:51;986.23;;;27.70;42.49
45071;BME280;30836;48.906;9.140;2022-07-23T04:35:52;986.21;;;27.70;42.49
45071;BME280;30836;48.906;9.140;2022-07-23T04:36:52;986.21;;;27.69;42.58
45071;BME280;30836;48.906;9.140;2022-07-23T04:37:53;986.21;;;27.69;42.63
45071;BME280;30836;48.906;9.140;2022-07-23T04:38:54;986.23;;;27.70;42.70
45071;BME280;30836;48.906;9.140;2022-07-23T04:39:55;986.25;;;27.71;42.63
45071;BME280;30836;48.906;9.140;2022-07-23T04:40:55;986.25;;;27.72;42.58
45071;BME280;30836;48.906;9.140;2022-07-23T04:41:56;986.27;;;27.72;42.68
45071;BME280;30836;48.906;9.140;2022-07-23T04:42:56;986.31;;;27.72;42.69
45071;BME280;30836;48.906;9.140;2022-07-23T04:43:57;986.31;;;27.73;42.60
45071;BME280;30836;48.906;9.140;2022-07-23T04:44:57;986.29;;;27.75;42.60
45071;BME280;30836;48.906;9.140;2022-07-23T04:45:58;986.34;;;27.76;42.60
45071;BME280;30836;48.906;9.140;2022-07-23T04:46:58;986.33;;;27.76;42.54
45071;BME280;30836;48.906;9.140;2022-07-23T04:47:59;986.33;;;27.77;42.50
45071;BME280;30836;48.906;9.140;2022-07-23T04:48:59;986.34;;;27.78;42.43
45071;BME280;30836;48.906;9.140;2022-07-23T04:49:59;986.34;;;27.78;42.47
45071;BME280;30836;48.906;9.140;2022-07-23T04:51:00;986.36;;;27.78;42.52
45071;BME280;30836;48.906;9.140;2022-07-23T04:52:00;986.33;;;27.78;42.51
45071;BME280;30836;48.906;9.140;2022-07-23T04:53:01;986.34;;;27.80;42.43
45071;BME280;30836;48.906;9.140;2022-07-23T04:54:01;986.34;;;27.82;42.25
45071;BME280;30836;48.906;9.140;2022-07-23T04:55:02;986.38;;;27.90;42.00
45071;BME280;30836;48.906;9.140;2022-07-23T04:56:04;986.42;;;28.03;41.76
45071;BME280;30836;48.906;9.140;2022-07-23T04:57:04;986.50;;;28.18;41.54
45071;BME280;30836;48.906;9.140;2022-07-23T04:58:05;986.54;;;28.32;41.36
45071;BME280;30836;48.906;9.140;2022-07-23T04:59:05;986.58;;;28.44;41.13
45071;BME280;30836;48.906;9.140;2022-07-23T05:00:06;986.58;;;28.54;41.08
45071;BME280;30836;48.906;9.140;2022-07-23T05:01:07;986.62;;;28.60;41.15
45071;BME280;30836;48.906;9.140;2022-07-23T05:02:08;986.62;;;28.65;40.97
45071;BME280;30836;48.906;9.140;2022-07-23T05:03:08;986.62;;;28.72;40.88
45071;BME280;30836;48.906;9.140;2022-07-23T05:04:09;986.60;;;28.78;40.76
45071;BME280;30836;48.906;9.140;2022-07-23T05:05:09;986.58;;;28.84;40.74
45071;BME280;30836;48.906;9.140;2022-07-23T05:06:09;986.58;;;28.88;40.57
45071;BME280;30836;48.906;9.140;2022-07-23T05:07:10;986.54;;;28.92;40.65
45071;BME280;30836;48.906;9.140;2022-07-23T05:08:10;986.54;;;28.93;40.60
45071;BME280;30836;48.906;9.140;2022-07-23T05:09:11;986.52;;;28.94;40.48
45071;BME280;30836;48.906;9.140;2022-07-23T05:10:11;986.50;;;28.94;40.39
45071;BME280;30836;48.906;9.140;2022-07-23T05:11:12;986.52;;;28.94;40.38
45071;BME280;30836;48.906;9.140;2022-07-23T05:12:12;986.54;;;28.94;40.38
45071;BME280;30836;48.906;9.140;2022-07-23T05:13:16;986.52;;;28.94;40.34
45071;BME280;30836;48.906;9.140;2022-07-23T05:14:17;986.50;;;28.97;40.29
45071;BME280;30836;48.906;9.140;2022-07-23T05:15:17;986.48;;;28.99;40.30
45071;BME280;30836;48.906;9.140;2022-07-23T05:16:17;986.52;;;29.01;40.21
45071;BME280;30836;48.906;9.140;2022-07-23T05:17:18;986.50;;;29.03;40.14
45071;BME280;30836;48.906;9.140;2022-07-23T05:18:18;986.52;;;29.06;40.07
45071;BME280;30836;48.906;9.140;2022-07-23T05:19:19;986.52;;;29.10;39.95
45071;BME280;30836;48.906;9.140;2022-07-23T05:20:19;986.52;;;29.13;39.93
45071;BME280;30836;48.906;9.140;2022-07-23T05:21:20;986.56;;;29.16;39.97
45071;BME280;30836;48.906;9.140;2022-07-23T05:22:20;986.60;;;29.18;39.94
45071;BME280;30836;48.906;9.140;2022-07-23T05:23:21;986.60;;;29.21;39.95
45071;BME280;30836;48.906;9.140;2022-07-23T05:24:21;986.62;;;29.23;39.94
45071;BME280;30836;48.906;9.140;2022-07-23T05:25:22;986.64;;;29.23;39.91
45071;BME280;30836;48.906;9.140;2022-07-23T05:26:22;986.66;;;29.24;40.01
45071;BME280;30836;48.906;9.140;2022-07-23T05:27:23;986.68;;;29.23;40.11
45071;BME280;30836;48.906;9.140;2022-07-23T05:28:23;986.70;;;29.21;40.32
45071;BME280;30836;48.906;9.140;2022-07-23T05:29:24;986.70;;;29.19;40.40
45071;BME280;30836;48.906;9.140;2022-07-23T05:30:24;986.72;;;29.14;40.77
45071;BME280;30836;48.906;9.140;2022-07-23T05:31:25;986.74;;;29.09;40.94
45071;BME280;30836;48.906;9.140;2022-07-23T05:32:25;986.72;;;29.04;41.28